Time;durP1;ratioP1;P1;durP2;ratioP2;P2;SDS_P1;SDS_P2;PMS_P1;PMS_P2;Temp;Humidity;BMP_temperature;BMP_pressure;BME280_temperature;BME280_humidity;BME280_pressure;Samples;Min_cycle;Max_cycle;Signal;HPM_P1;HPM_P2
2024/01/24 08:06:08;;;;;;;;;28.67;27.33;;;;;;;;5044417;28;13514;-79
2024/01/24 08:08:34;;;;;;;;;25.67;22.33;;;;;;;;5043282;28;8818;-86
2024/01/24 08:10:59;;;;;;;;;24.33;22.00;;;;;;;;5048130;28;8840;-86
2024/01/24 08:13:24;;;;;;;;;29.33;25.00;;;;;;;;5047604;28;8817;-83
2024/01/24 08:15:49;;;;;;;;;26.00;25.67;;;;;;;;5048785;28;8834;-82
2024/01/24 08:18:15;;;;;;;;;24.00;22.00;;;;;;;;5046499;28;8815;-83
2024/01/24 08:20:40;;;;;;;;;23.67;23.67;;;;;;;;5046553;28;8823;-77
2024/01/24 08:23:05;;;;;;;;;26.00;23.00;;;;;;;;5047722;28;8818;-79
2024/01/24 08:25:31;;;;;;;;;26.67;24.00;;;;;;;;5047522;28;8823;-78
2024/01/24 08:27:57;;;;;;;;;15.00;12.00;;;;;;;;5046954;28;8874;-78
2024/01/24 08:30:22;;;;;;;;;28.00;25.33;;;;;;;;5047561;28;8800;-78
2024/01/24 08:32:48;;;;;;;;;31.33;28.33;;;;;;;;5039581;28;8829;-78
2024/01/24 08:35:13;;;;;;;;;26.67;22.67;;;;;;;;5033538;28;8798;-75
2024/01/24 08:37:38;;;;;;;;;28.67;27.00;;;;;;;;5026993;28;8818;-74
2024/01/24 08:40:05;;;;;;;;;25.33;24.67;;;;;;;;5027307;28;8964;-76
2024/01/24 08:42:30;;;;;;;;;34.00;27.33;;;;;;;;5026086;28;8841;-75
2024/01/24 08:44:56;;;;;;;;;33.67;30.33;;;;;;;;5027180;28;9549;-75
2024/01/24 08:47:21;;;;;;;;;24.00;23.67;;;;;;;;5035725;28;8787;-74
2024/01/24 08:49:47;;;;;;;;;30.00;24.67;;;;;;;;5046613;28;8780;-74
2024/01/24 08:52:13;;;;;;;;;30.33;25.00;;;;;;;;5047061;28;8814;-73
2024/01/24 08:54:38;;;;;;;;;31.67;27.33;;;;;;;;5045760;28;8831;-72
2024/01/24 08:57:04;;;;;;;;;26.33;25.67;;;;;;;;5045320;28;9545;-73
2024/01/24 08:59:29;;;;;;;;;24.67;21.67;;;;;;;;5045180;28;8831;-71
2024/01/24 09:01:56;;;;;;;;;27.67;25.33;;;;;;;;5046571;28;8888;-75
2024/01/24 09:04:22;;;;;;;;;32.00;26.33;;;;;;;;5045267;28;8961;-75
2024/01/24 09:06:47;;;;;;;;;29.67;22.67;;;;;;;;5046732;28;8902;-73
2024/01/24 09:09:15;;;;;;;;;29.67;25.00;;;;;;;;5046213;28;9635;-82
2024/01/24 09:11:40;;;;;;;;;31.67;26.33;;;;;;;;5044187;28;8819;-76
2024/01/24 09:14:06;;;;;;;;;29.00;26.33;;;;;;;;5044909;28;9533;-77
2024/01/24 09:16:31;;;;;;;;;27.00;25.00;;;;;;;;5036839;28;9513;-77
2024/01/24 09:18:56;;;;;;;;;29.00;27.67;;;;;;;;5016103;28;10007;-77
2024/01/24 09:21:22;;;;;;;;;28.33;25.33;;;;;;;;4973826;28;9626;-75
2024/01/24 09:23:49;;;;;;;;;26.00;23.33;;;;;;;;4973850;28;9542;-80
2024/01/24 09:26:15;;;;;;;;;37.67;28.00;;;;;;;;4974232;28;8817;-79
2024/01/24 09:28:40;;;;;;;;;31.00;29.33;;;;;;;;4972181;28;11606;-75
2024/01/24 09:31:06;;;;;;;;;26.67;26.67;;;;;;;;4932772;28;10965;-76
2024/01/24 09:33:31;;;;;;;;;36.00;30.33;;;;;;;;4966408;28;8827;-75
2024/01/24 09:35:56;;;;;;;;;35.67;34.00;;;;;;;;4973655;28;8834;-75
2024/01/24 09:38:22;;;;;;;;;40.33;35.67;;;;;;;;4973712;28;8820;-75
2024/01/24 09:40:47;;;;;;;;;32.67;32.67;;;;;;;;4988682;28;8914;-75
2024/01/24 09:43:13;;;;;;;;;33.33;31.00;;;;;;;;4973808;28;8800;-75
2024/01/24 09:45:42;;;;;;;;;33.67;29.67;;;;;;;;4973695;28;8847;-76
2024/01/24 09:48:09;;;;;;;;;39.67;36.33;;;;;;;;4971065;28;8811;-75
2024/01/24 09:50:34;;;;;;;;;31.33;29.67;;;;;;;;4962841;28;8798;-74
2024/01/24 09:53:00;;;;;;;;;37.00;33.33;;;;;;;;4953287;28;8830;-78
2024/01/24 09:55:27;;;;;;;;;34.33;33.00;;;;;;;;4953208;28;8841;-76
2024/01/24 09:57:53;;;;;;;;;39.67;35.00;;;;;;;;4953958;28;8934;-77
2024/01/24 10:00:18;;;;;;;;;2.67;1.00;;;;;;;;4985021;28;8818;-69
2024/01/24 10:02:45;;;;;;;;;27.33;23.67;;;;;;;;4954271;28;8822;-75
2024/01/24 10:05:12;;;;;;;;;22.00;22.00;;;;;;;;4954206;28;8842;-75
2024/01/24 10:07:38;;;;;;;;;21.00;18.33;;;;;;;;4952926;28;11613;-75
2024/01/24 10:10:07;;;;;;;;;25.00;25.00;;;;;;;;4953809;28;11579;-76
2024/01/24 10:12:32;;;;;;;;;32.67;25.67;;;;;;;;4954180;28;9505;-76
2024/01/24 10:14:58;;;;;;;;;29.67;23.67;;;;;;;;4954015;28;8818;-74
2024/01/24 10:17:23;;;;;;;;;32.00;27.33;;;;;;;;4962891;28;8885;-74
2024/01/24 10:19:48;;;;;;;;;28.33;28.33;;;;;;;;4973145;28;8823;-73
2024/01/24 10:22:14;;;;;;;;;25.75;23.00;;;;;;;;4973264;28;8858;-74
2024/01/24 10:24:40;;;;;;;;;25.25;21.75;;;;;;;;4973274;28;8844;-76
2024/01/24 10:27:05;;;;;;;;;27.25;26.75;;;;;;;;4972756;28;8816;-76
2024/01/24 10:29:30;;;;;;;;;28.75;23.75;;;;;;;;4970970;28;8863;-75
2024/01/24 10:31:59;;;;;;;;;29.50;29.50;;;;;;;;4972688;28;8832;-76
2024/01/24 10:34:27;;;;;;;;;35.00;30.33;;;;;;;;4965617;28;9568;-75
2024/01/24 10:36:53;;;;;;;;;52.33;43.00;;;;;;;;4953691;28;11668;-74
2024/01/24 10:39:20;;;;;;;;;48.00;38.67;;;;;;;;4972355;28;8800;-76
2024/01/24 10:41:47;;;;;;;;;43.67;41.67;;;;;;;;4966421;28;8822;-77
2024/01/24 10:44:16;;;;;;;;;33.00;29.00;;;;;;;;4955708;28;8862;-76
2024/01/24 10:46:42;;;;;;;;;36.67;32.33;;;;;;;;4959859;28;11581;-76
2024/01/24 10:49:09;;;;;;;;;31.67;30.67;;;;;;;;4953280;28;11803;-76
2024/01/24 10:51:35;;;;;;;;;33.67;32.33;;;;;;;;4955423;28;8810;-75
2024/01/24 10:54:02;;;;;;;;;40.00;30.67;;;;;;;;4961744;28;11589;-76
2024/01/24 10:56:28;;;;;;;;;32.00;26.75;;;;;;;;4952051;28;8977;-76
2024/01/24 10:58:55;;;;;;;;;33.75;30.50;;;;;;;;4953207;28;11613;-76
2024/01/24 11:01:20;;;;;;;;;38.67;36.33;;;;;;;;4953350;28;8832;-76
2024/01/24 11:03:47;;;;;;;;;35.33;28.33;;;;;;;;4907480;28;11593;-76
2024/01/24 11:06:14;;;;;;;;;35.00;32.25;;;;;;;;4952778;28;8799;-76
2024/01/24 11:08:39;;;;;;;;;37.33;31.67;;;;;;;;4953147;28;12387;-75
2024/01/24 11:11:09;;;;;;;;;36.00;30.25;;;;;;;;4952669;28;11577;-77
2024/01/24 11:13:35;;;;;;;;;32.00;29.75;;;;;;;;4953084;28;8806;-77
2024/01/24 11:16:05;;;;;;;;;28.00;28.00;;;;;;;;4951573;28;11705;-77
2024/01/24 11:18:33;;;;;;;;;44.00;36.67;;;;;;;;4970895;28;11587;-76
2024/01/24 11:20:59;;;;;;;;;36.33;32.67;;;;;;;;4972254;28;11580;-80
2024/01/24 11:23:55;;;;;;;;;39.75;30.75;;;;;;;;4972392;28;11686;-80
2024/01/24 11:26:20;;;;;;;;;33.00;30.00;;;;;;;;4972039;28;8943;-80
2024/01/24 11:28:46;;;;;;;;;37.50;30.00;;;;;;;;4972136;28;11571;-78
2024/01/24 11:31:12;;;;;;;;;34.50;29.00;;;;;;;;4971954;28;8854;-81
2024/01/24 11:33:57;;;;;;;;;29.25;28.75;;;;;;;;4939726;28;11429;-80
2024/01/24 11:36:25;;;;;;;;;34.00;33.00;;;;;;;;4959953;28;11659;-80
2024/01/24 11:38:51;;;;;;;;;42.25;37.25;;;;;;;;4957511;28;11589;-80
2024/01/24 11:41:26;;;;;;;;;45.33;36.67;;;;;;;;4967280;28;11598;-80
2024/01/24 11:43:51;;;;;;;;;40.33;37.67;;;;;;;;4972076;28;12403;-78
2024/01/24 11:46:18;;;;;;;;;39.00;37.00;;;;;;;;4971649;28;8915;-79
2024/01/24 11:48:43;;;;;;;;;43.67;37.33;;;;;;;;4970443;28;8808;-79
2024/01/24 11:51:09;;;;;;;;;35.67;30.33;;;;;;;;4971815;28;9578;-79
2024/01/24 11:53:35;;;;;;;;;45.00;38.67;;;;;;;;4972091;28;8816;-79
2024/01/24 11:56:02;;;;;;;;;46.33;42.00;;;;;;;;4971673;28;8945;-78
2024/01/24 11:58:28;;;;;;;;;39.67;35.67;;;;;;;;4971822;28;9627;-78
2024/01/24 12:00:58;;;;;;;;;54.67;42.67;;;;;;;;4971764;28;8803;-79
2024/01/24 12:03:23;;;;;;;;;48.33;43.67;;;;;;;;4971549;28;9522;-78
2024/01/24 12:05:49;;;;;;;;;43.67;40.00;;;;;;;;4970236;28;8929;-78
2024/01/24 12:08:14;;;;;;;;;44.00;40.33;;;;;;;;4971777;28;8886;-78
2024/01/24 12:10:40;;;;;;;;;51.67;44.33;;;;;;;;4971617;28;9643;-76
2024/01/24 12:13:06;;;;;;;;;48.00;43.33;;;;;;;;4971442;28;8896;-76
2024/01/24 12:15:35;;;;;;;;;47.33;42.00;;;;;;;;4971744;28;8859;-76
2024/01/24 12:18:01;;;;;;;;;47.67;40.67;;;;;;;;4969645;28;8871;-76
2024/01/24 12:20:26;;;;;;;;;46.67;42.00;;;;;;;;4971694;28;8887;-78
2024/01/24 12:22:51;;;;;;;;;50.67;45.00;;;;;;;;4971281;28;9025;-76
2024/01/24 12:25:17;;;;;;;;;49.00;44.33;;;;;;;;4971718;28;8811;-77
2024/01/24 12:27:42;;;;;;;;;47.00;42.00;;;;;;;;4971744;28;8925;-81
2024/01/24 12:30:08;;;;;;;;;48.33;44.00;;;;;;;;4971886;28;8900;-80
2024/01/24 12:32:33;;;;;;;;;50.33;45.00;;;;;;;;4971126;28;8839;-82
2024/01/24 12:34:59;;;;;;;;;54.33;46.33;;;;;;;;4965410;28;8855;-83
2024/01/24 12:37:24;;;;;;;;;55.67;42.00;;;;;;;;4955469;28;8806;-83
2024/01/24 12:39:54;;;;;;;;;43.33;40.33;;;;;;;;4961814;28;8852;-83
2024/01/24 12:42:19;;;;;;;;;54.33;44.67;;;;;;;;4952646;28;8815;-82
2024/01/24 12:44:44;;;;;;;;;53.00;45.67;;;;;;;;4952850;28;8815;-83
2024/01/24 12:47:10;;;;;;;;;63.33;52.00;;;;;;;;4959339;28;8816;-82
2024/01/24 12:49:35;;;;;;;;;54.67;45.67;;;;;;;;4971779;28;9502;-81
2024/01/24 12:52:00;;;;;;;;;53.00;44.67;;;;;;;;4972476;28;8832;-82
2024/01/24 12:54:27;;;;;;;;;48.67;42.67;;;;;;;;4975185;28;9553;-82
2024/01/24 12:56:52;;;;;;;;;42.00;42.00;;;;;;;;4974127;28;8839;-86
2024/01/24 12:59:17;;;;;;;;;49.33;45.33;;;;;;;;4974962;28;8845;-79
2024/01/24 13:01:43;;;;;;;;;58.33;48.67;;;;;;;;4989614;28;8824;-81
2024/01/24 13:04:08;;;;;;;;;51.00;47.00;;;;;;;;4989515;28;8931;-81
2024/01/24 13:06:35;;;;;;;;;53.67;45.00;;;;;;;;4973485;28;8816;-81
2024/01/24 13:09:01;;;;;;;;;56.00;47.00;;;;;;;;4974928;28;8816;-82
2024/01/24 13:11:28;;;;;;;;;59.33;47.33;;;;;;;;4975321;28;8838;-81
2024/01/24 13:13:53;;;;;;;;;51.00;45.00;;;;;;;;4975214;28;8816;-88
2024/01/24 13:16:18;;;;;;;;;54.33;46.00;;;;;;;;4973421;28;8835;-82
2024/01/24 13:18:43;;;;;;;;;51.33;46.33;;;;;;;;4974329;28;8820;-83
2024/01/24 13:21:09;;;;;;;;;43.00;42.00;;;;;;;;4989447;28;8866;-79
2024/01/24 13:44:15;;;;;;;;;45.00;37.67;;;;;;;;5009860;23;8902;-80
2024/01/24 13:46:40;;;;;;;;;56.00;45.67;;;;;;;;4965402;28;8807;-79
2024/01/24 13:49:08;;;;;;;;;56.00;46.00;;;;;;;;4962645;28;8810;-80
2024/01/24 13:51:34;;;;;;;;;55.67;46.67;;;;;;;;4946644;28;8828;-79
2024/01/24 13:53:59;;;;;;;;;50.33;44.67;;;;;;;;4963910;28;8830;-79
2024/01/24 13:56:25;;;;;;;;;48.67;41.00;;;;;;;;4961978;28;8889;-79
2024/01/24 13:58:50;;;;;;;;;48.33;42.67;;;;;;;;4963737;28;8828;-79
2024/01/24 14:01:15;;;;;;;;;55.67;48.33;;;;;;;;4963265;28;8905;-79
2024/01/24 14:03:42;;;;;;;;;61.67;47.67;;;;;;;;4965575;28;8805;-79
2024/01/24 14:06:07;;;;;;;;;53.67;47.00;;;;;;;;4953577;28;8861;-79
2024/01/24 14:08:33;;;;;;;;;59.00;44.00;;;;;;;;4973039;28;8805;-78
2024/01/24 14:10:58;;;;;;;;;58.00;46.33;;;;;;;;4974098;28;8833;-79
2024/01/24 14:13:24;;;;;;;;;49.67;46.00;;;;;;;;4973391;28;8805;-77
2024/01/24 14:15:49;;;;;;;;;55.67;48.00;;;;;;;;4971351;28;8836;-77
2024/01/24 14:18:14;;;;;;;;;57.00;49.00;;;;;;;;4973094;28;8817;-78
2024/01/24 14:20:40;;;;;;;;;56.00;47.67;;;;;;;;4973151;28;8879;-78
2024/01/24 14:23:06;;;;;;;;;53.33;45.33;;;;;;;;4988046;28;9593;-78
2024/01/24 14:25:32;;;;;;;;;59.67;47.67;;;;;;;;4971364;28;8831;-78
2024/01/24 14:27:57;;;;;;;;;60.33;50.00;;;;;;;;4972862;28;8915;-77
2024/01/24 14:30:22;;;;;;;;;56.00;48.00;;;;;;;;4972897;28;8817;-76
2024/01/24 14:32:48;;;;;;;;;52.67;47.00;;;;;;;;4973280;28;8890;-76
2024/01/24 14:35:14;;;;;;;;;63.00;50.67;;;;;;;;4971001;28;8860;-78
2024/01/24 14:37:39;;;;;;;;;63.00;51.33;;;;;;;;4972677;28;8804;-77
2024/01/24 14:40:04;;;;;;;;;60.00;49.33;;;;;;;;4973091;28;8809;-77
2024/01/24 14:42:30;;;;;;;;;60.00;48.00;;;;;;;;4971852;28;8805;-77
2024/01/24 14:44:56;;;;;;;;;56.67;48.33;;;;;;;;4953880;28;9729;-77
2024/01/24 14:47:21;;;;;;;;;60.00;49.33;;;;;;;;4908936;28;11138;-77
2024/01/24 14:49:47;;;;;;;;;65.00;52.33;;;;;;;;4953538;28;8814;-78
2024/01/24 14:52:12;;;;;;;;;40.00;37.33;;;;;;;;4953825;28;8833;-82
2024/01/24 14:54:38;;;;;;;;;58.67;48.33;;;;;;;;4953100;28;9563;-80
2024/01/24 14:57:03;;;;;;;;;62.00;50.00;;;;;;;;4953466;28;8791;-78
2024/01/24 14:59:29;;;;;;;;;59.00;48.67;;;;;;;;4952931;28;8810;-74
2024/01/24 15:01:54;;;;;;;;;56.00;46.33;;;;;;;;4952299;28;9564;-76
2024/01/24 15:04:19;;;;;;;;;61.67;46.33;;;;;;;;4952517;28;8802;-78
2024/01/24 15:06:45;;;;;;;;;54.67;47.33;;;;;;;;4952196;28;8824;-75
2024/01/24 15:09:12;;;;;;;;;62.33;49.67;;;;;;;;4952421;28;8771;-76
2024/01/24 15:11:37;;;;;;;;;54.67;46.33;;;;;;;;4952228;28;8787;-77
2024/01/24 15:14:03;;;;;;;;;59.00;49.33;;;;;;;;4934255;28;11627;-75
2024/01/24 15:16:29;;;;;;;;;58.67;47.33;;;;;;;;4952906;28;8814;-75
2024/01/24 15:18:54;;;;;;;;;51.00;46.00;;;;;;;;4946178;28;8802;-74
2024/01/24 15:21:20;;;;;;;;;51.00;47.00;;;;;;;;4926048;28;8824;-74
2024/01/24 15:23:45;;;;;;;;;58.33;46.67;;;;;;;;4941893;28;8843;-74
2024/01/24 15:26:10;;;;;;;;;62.67;50.33;;;;;;;;4943879;28;8847;-74
2024/01/24 15:28:36;;;;;;;;;63.33;51.00;;;;;;;;4938803;29;8801;-75
2024/01/24 15:31:01;;;;;;;;;63.33;50.67;;;;;;;;4948481;28;8795;-69
2024/01/24 15:33:27;;;;;;;;;65.33;54.00;;;;;;;;4952169;28;8827;-69
2024/01/24 15:35:52;;;;;;;;;59.67;50.00;;;;;;;;4951690;28;8855;-70
2024/01/24 15:38:17;;;;;;;;;62.00;49.33;;;;;;;;4951570;28;8864;-70
2024/01/24 15:40:42;;;;;;;;;59.33;50.00;;;;;;;;4948612;28;8872;-70
2024/01/24 15:43:09;;;;;;;;;64.00;52.33;;;;;;;;4945465;28;8831;-69
2024/01/24 15:45:34;;;;;;;;;64.00;51.67;;;;;;;;4942947;28;8807;-70
2024/01/24 15:47:59;;;;;;;;;62.00;45.67;;;;;;;;4935083;28;8829;-69
2024/01/24 15:50:25;;;;;;;;;62.33;47.67;;;;;;;;4947736;28;8855;-70
2024/01/24 15:52:51;;;;;;;;;62.33;50.00;;;;;;;;4943570;28;8801;-70
2024/01/24 15:55:16;;;;;;;;;66.00;52.33;;;;;;;;4944010;28;8850;-68
2024/01/24 15:57:41;;;;;;;;;70.67;55.00;;;;;;;;4945093;28;8798;-70
2024/01/24 16:00:10;;;;;;;;;54.00;44.67;;;;;;;;4947505;28;8794;-69
2024/01/24 16:02:36;;;;;;;;;57.00;48.00;;;;;;;;4951800;28;8961;-69
2024/01/24 16:05:06;;;;;;;;;60.33;51.00;;;;;;;;4950264;28;8815;-70
2024/01/24 16:07:32;;;;;;;;;64.00;53.33;;;;;;;;4952433;28;8787;-70
2024/01/24 16:09:57;;;;;;;;;65.67;53.67;;;;;;;;4952224;29;8830;-68
2024/01/24 16:12:22;;;;;;;;;31.67;26.33;;;;;;;;4952260;29;8787;-71
2024/01/24 16:14:47;;;;;;;;;65.33;50.33;;;;;;;;4949696;28;8822;-71
2024/01/24 16:17:13;;;;;;;;;68.00;53.67;;;;;;;;4943779;29;8808;-71
2024/01/24 16:19:38;;;;;;;;;71.33;54.33;;;;;;;;4941897;29;9522;-72
2024/01/24 16:22:03;;;;;;;;;56.67;45.33;;;;;;;;4942996;29;8791;-72
2024/01/24 16:24:29;;;;;;;;;67.00;54.00;;;;;;;;4940129;29;9159;-69
2024/01/24 16:26:54;;;;;;;;;62.33;51.33;;;;;;;;4946104;28;8789;-72
2024/01/24 16:29:19;;;;;;;;;67.00;53.00;;;;;;;;4950429;28;8779;-71
2024/01/24 16:31:45;;;;;;;;;62.33;53.00;;;;;;;;4955628;28;9577;-71
2024/01/24 16:34:11;;;;;;;;;70.33;54.00;;;;;;;;4956080;28;8791;-72
2024/01/24 16:36:36;;;;;;;;;63.00;50.00;;;;;;;;4950724;28;8797;-73
2024/01/24 16:39:01;;;;;;;;;61.33;48.67;;;;;;;;4940165;28;9604;-73
2024/01/24 16:41:27;;;;;;;;;65.33;54.33;;;;;;;;4949546;28;8791;-72
2024/01/24 16:43:52;;;;;;;;;63.33;50.67;;;;;;;;4946619;28;8799;-73
2024/01/24 16:46:17;;;;;;;;;70.00;55.33;;;;;;;;4948014;28;8809;-72
2024/01/24 16:48:43;;;;;;;;;73.67;57.33;;;;;;;;4930529;28;8809;-75
2024/01/24 16:51:09;;;;;;;;;67.00;53.67;;;;;;;;4947594;28;8822;-73
2024/01/24 16:53:36;;;;;;;;;69.33;55.67;;;;;;;;4946229;28;8821;-71
2024/01/24 16:56:02;;;;;;;;;63.33;53.33;;;;;;;;4942178;28;8941;-72
2024/01/24 16:58:27;;;;;;;;;65.67;54.67;;;;;;;;4944274;28;8801;-73
2024/01/24 17:00:52;;;;;;;;;66.33;54.00;;;;;;;;4953810;28;8925;-74
2024/01/24 17:03:18;;;;;;;;;65.33;54.33;;;;;;;;4949766;28;8827;-72
2024/01/24 17:05:43;;;;;;;;;72.33;54.67;;;;;;;;4945957;28;8823;-72
2024/01/24 17:08:08;;;;;;;;;71.33;57.00;;;;;;;;4944826;28;8785;-72
2024/01/24 17:10:34;;;;;;;;;69.00;55.67;;;;;;;;4954527;28;9505;-71
2024/01/24 17:12:59;;;;;;;;;83.00;64.33;;;;;;;;4925890;28;8817;-73
2024/01/24 17:15:24;;;;;;;;;77.33;61.00;;;;;;;;4928849;28;8858;-72
2024/01/24 17:17:50;;;;;;;;;69.33;56.67;;;;;;;;4948739;29;8773;-73
2024/01/24 17:20:15;;;;;;;;;65.67;54.33;;;;;;;;4941443;29;8813;-73
2024/01/24 17:22:41;;;;;;;;;69.33;54.67;;;;;;;;4947522;28;9560;-72
2024/01/24 17:25:07;;;;;;;;;70.33;55.67;;;;;;;;4946585;28;8837;-75
2024/01/24 17:27:34;;;;;;;;;71.67;59.33;;;;;;;;4945389;29;8848;-74
2024/01/24 17:29:59;;;;;;;;;70.67;58.00;;;;;;;;4946356;28;8830;-77
2024/01/24 17:32:25;;;;;;;;;71.33;57.33;;;;;;;;4948394;28;8823;-77
2024/01/24 17:34:50;;;;;;;;;69.33;58.00;;;;;;;;4944583;28;8835;-77
2024/01/24 17:37:15;;;;;;;;;66.67;54.00;;;;;;;;4951817;28;8992;-76
2024/01/24 17:39:41;;;;;;;;;78.67;60.67;;;;;;;;4936079;28;8853;-80
2024/01/24 17:42:06;;;;;;;;;71.00;58.00;;;;;;;;4951349;28;8829;-79
2024/01/24 17:44:33;;;;;;;;;73.00;57.67;;;;;;;;4933237;28;9687;-80
2024/01/24 17:47:00;;;;;;;;;54.33;41.67;;;;;;;;4930648;28;8842;-80
2024/01/24 17:49:26;;;;;;;;;67.00;55.67;;;;;;;;4954121;28;8828;-76
2024/01/24 17:51:51;;;;;;;;;69.00;57.67;;;;;;;;4947160;28;8803;-77
2024/01/24 17:54:17;;;;;;;;;72.00;57.00;;;;;;;;4942150;28;8848;-75
2024/01/24 17:56:43;;;;;;;;;68.67;54.33;;;;;;;;4944258;28;8814;-77
2024/01/24 17:59:09;;;;;;;;;67.33;52.67;;;;;;;;4936456;28;8822;-79
2024/01/24 18:01:37;;;;;;;;;72.33;57.33;;;;;;;;4953495;28;9021;-79
2024/01/24 18:04:03;;;;;;;;;75.67;58.00;;;;;;;;4951038;28;8802;-80
2024/01/24 18:06:28;;;;;;;;;73.67;58.00;;;;;;;;4931240;28;8823;-77
2024/01/24 18:08:53;;;;;;;;;32.00;19.33;;;;;;;;4953497;28;8806;-77
2024/01/24 18:11:18;;;;;;;;;61.67;48.67;;;;;;;;4950584;28;8873;-76
2024/01/24 18:13:44;;;;;;;;;75.33;59.33;;;;;;;;4951425;28;9562;-75
2024/01/24 18:16:09;;;;;;;;;77.00;62.33;;;;;;;;4946170;28;8950;-77
2024/01/24 18:18:35;;;;;;;;;77.00;62.00;;;;;;;;4950454;28;9713;-77
2024/01/24 18:21:01;;;;;;;;;86.33;65.67;;;;;;;;4946392;28;8852;-81
2024/01/24 18:23:26;;;;;;;;;75.67;61.67;;;;;;;;4926480;28;8811;-74
2024/01/24 18:25:51;;;;;;;;;78.67;64.00;;;;;;;;4948049;28;8839;-81
2024/01/24 18:28:16;;;;;;;;;80.67;63.67;;;;;;;;4945278;28;8803;-83
2024/01/24 18:30:42;;;;;;;;;45.33;38.33;;;;;;;;4946274;28;8853;-75
2024/01/24 18:33:07;;;;;;;;;80.67;64.67;;;;;;;;4927650;28;8827;-79
2024/01/24 18:35:33;;;;;;;;;78.00;64.00;;;;;;;;4942980;28;8867;-74
2024/01/24 18:37:58;;;;;;;;;78.00;61.33;;;;;;;;4941681;28;8779;-74
2024/01/24 18:40:24;;;;;;;;;73.33;59.33;;;;;;;;4945311;28;8778;-77
2024/01/24 18:42:49;;;;;;;;;68.67;52.00;;;;;;;;4949214;28;8813;-75
2024/01/24 18:45:15;;;;;;;;;76.00;60.00;;;;;;;;4946900;28;10570;-75
2024/01/24 18:47:41;;;;;;;;;74.00;60.33;;;;;;;;4941329;28;8955;-77
2024/01/24 18:50:07;;;;;;;;;74.33;60.33;;;;;;;;4953751;28;8814;-73
2024/01/24 18:52:33;;;;;;;;;86.00;66.33;;;;;;;;4952678;28;8818;-73
2024/01/24 18:54:58;;;;;;;;;81.67;61.67;;;;;;;;4951401;28;8858;-72
2024/01/24 18:57:26;;;;;;;;;81.67;65.67;;;;;;;;4925784;28;8827;-76
2024/01/24 18:59:52;;;;;;;;;85.67;64.33;;;;;;;;4944570;28;8822;-74
2024/01/24 19:02:17;;;;;;;;;84.67;64.33;;;;;;;;4943575;28;9599;-74
2024/01/24 19:04:43;;;;;;;;;87.33;67.00;;;;;;;;4946030;28;8789;-72
2024/01/24 19:07:08;;;;;;;;;85.33;66.00;;;;;;;;4947209;28;8810;-73
2024/01/24 19:09:33;;;;;;;;;85.33;68.67;;;;;;;;4952603;28;8826;-73
2024/01/24 19:11:59;;;;;;;;;87.00;68.00;;;;;;;;4935801;28;8862;-73
2024/01/24 19:14:24;;;;;;;;;89.67;69.00;;;;;;;;4952509;28;9512;-75
2024/01/24 19:16:50;;;;;;;;;87.33;67.67;;;;;;;;4950866;28;8849;-75
2024/01/24 19:19:15;;;;;;;;;84.33;66.33;;;;;;;;4949785;28;8961;-87
2024/01/24 19:21:45;;;;;;;;;82.00;66.00;;;;;;;;4932902;28;8813;-85
2024/01/24 19:24:11;;;;;;;;;67.33;52.00;;;;;;;;4927912;28;8849;-83
2024/01/24 19:26:38;;;;;;;;;88.67;68.33;;;;;;;;4926792;28;8810;-76
2024/01/24 19:29:03;;;;;;;;;92.00;71.25;;;;;;;;4942293;28;8895;-77
2024/01/24 19:31:28;;;;;;;;;89.75;70.75;;;;;;;;4943570;28;8946;-77
2024/01/24 19:33:53;;;;;;;;;90.00;70.25;;;;;;;;4944395;28;8779;-77
2024/01/24 19:36:19;;;;;;;;;89.25;69.75;;;;;;;;4943287;28;8842;-76
2024/01/24 19:38:46;;;;;;;;;85.33;68.33;;;;;;;;4944640;28;8803;-71
2024/01/24 19:41:11;;;;;;;;;93.75;72.50;;;;;;;;4951491;28;8909;-74
2024/01/24 19:43:38;;;;;;;;;87.25;69.50;;;;;;;;4933730;28;9008;-73
2024/01/24 19:46:04;;;;;;;;;97.00;73.75;;;;;;;;4952615;28;9605;-73
2024/01/24 19:48:29;;;;;;;;;91.75;73.50;;;;;;;;4926455;28;8946;-74
2024/01/24 19:50:54;;;;;;;;;84.33;65.33;;;;;;;;4952567;28;8787;-74
2024/01/24 19:53:20;;;;;;;;;91.00;70.75;;;;;;;;4935345;28;8819;-82
2024/01/24 19:55:46;;;;;;;;;86.33;66.33;;;;;;;;4952961;28;8873;-77
2024/01/24 19:58:11;;;;;;;;;91.67;69.67;;;;;;;;4952472;28;8795;-75
2024/01/24 20:00:36;;;;;;;;;91.00;71.00;;;;;;;;4950934;28;8881;-74
2024/01/24 20:03:02;;;;;;;;;89.25;68.00;;;;;;;;4952623;28;8770;-76
2024/01/24 20:05:27;;;;;;;;;87.25;66.75;;;;;;;;4935169;28;8901;-73
2024/01/24 20:07:52;;;;;;;;;91.50;74.75;;;;;;;;4952737;28;8794;-73
2024/01/24 20:10:18;;;;;;;;;87.00;70.00;;;;;;;;4935202;29;8814;-74
2024/01/24 20:12:45;;;;;;;;;87.25;69.25;;;;;;;;4941184;29;8801;-74
2024/01/24 20:15:10;;;;;;;;;83.00;66.50;;;;;;;;4923961;29;8856;-74
2024/01/24 20:17:36;;;;;;;;;88.00;69.00;;;;;;;;4942385;28;8850;-74
2024/01/24 20:20:02;;;;;;;;;88.75;70.50;;;;;;;;4928221;29;8832;-74
2024/01/24 20:22:28;;;;;;;;;87.75;73.00;;;;;;;;4925068;28;8801;-74
2024/01/24 20:24:53;;;;;;;;;81.25;66.25;;;;;;;;4941495;29;8933;-74
2024/01/24 20:27:18;;;;;;;;;84.25;64.75;;;;;;;;4942950;28;8787;-75
2024/01/24 20:29:44;;;;;;;;;83.00;66.00;;;;;;;;4941737;28;8800;-75
2024/01/24 20:32:09;;;;;;;;;86.00;67.25;;;;;;;;4924818;29;8815;-75
2024/01/24 20:34:35;;;;;;;;;83.00;66.00;;;;;;;;4942789;29;8969;-73
2024/01/24 20:37:01;;;;;;;;;86.25;67.50;;;;;;;;4942945;29;8755;-74
2024/01/24 20:39:27;;;;;;;;;86.75;65.75;;;;;;;;4942008;29;8856;-74
2024/01/24 20:41:52;;;;;;;;;84.00;65.67;;;;;;;;4941161;28;8806;-75
2024/01/24 20:44:18;;;;;;;;;79.33;63.33;;;;;;;;4942827;29;8834;-73
2024/01/24 20:46:45;;;;;;;;;83.25;66.00;;;;;;;;4947100;29;8787;-73
2024/01/24 20:49:10;;;;;;;;;84.00;65.75;;;;;;;;4952106;29;8778;-72
2024/01/24 20:51:35;;;;;;;;;77.67;62.33;;;;;;;;4952010;29;8929;-71
2024/01/24 20:54:03;;;;;;;;;84.67;65.33;;;;;;;;4931774;29;8827;-73
2024/01/24 20:56:28;;;;;;;;;80.75;64.50;;;;;;;;4951933;29;8823;-72
2024/01/24 20:58:54;;;;;;;;;89.00;69.75;;;;;;;;4966524;28;8929;-73
2024/01/24 21:01:19;;;;;;;;;89.25;69.75;;;;;;;;4951876;28;8825;-72
2024/01/24 21:03:45;;;;;;;;;78.00;62.33;;;;;;;;4966500;28;8941;-73
2024/01/24 21:06:10;;;;;;;;;80.33;61.33;;;;;;;;4951897;29;8815;-72
2024/01/24 21:08:35;;;;;;;;;78.33;63.00;;;;;;;;4951897;29;9621;-72
2024/01/24 21:11:01;;;;;;;;;76.00;59.00;;;;;;;;4871688;28;10389;-73
2024/01/24 21:13:26;;;;;;;;;76.00;59.00;;;;;;;;4953554;28;8806;-73
2024/01/24 21:15:52;;;;;;;;;77.00;61.00;;;;;;;;4955259;28;9626;-72
2024/01/24 21:18:17;;;;;;;;;78.33;61.67;;;;;;;;4954569;28;8902;-73
2024/01/24 21:20:42;;;;;;;;;76.67;60.00;;;;;;;;4955109;28;8791;-74
2024/01/24 21:23:08;;;;;;;;;74.33;59.00;;;;;;;;4931055;28;11062;-73
2024/01/24 21:25:33;;;;;;;;;79.00;62.67;;;;;;;;4974162;28;8801;-73
2024/01/24 21:27:58;;;;;;;;;80.00;61.00;;;;;;;;4974441;28;8773;-74
2024/01/24 21:30:25;;;;;;;;;75.00;58.00;;;;;;;;4974320;28;8899;-72
2024/01/24 21:32:50;;;;;;;;;74.67;60.67;;;;;;;;4974252;28;8828;-73
2024/01/24 21:35:16;;;;;;;;;73.00;59.67;;;;;;;;4974068;28;8828;-73
2024/01/24 21:37:41;;;;;;;;;81.00;62.33;;;;;;;;4972788;28;8828;-74
2024/01/24 21:40:07;;;;;;;;;71.67;56.67;;;;;;;;4971987;28;9565;-76
2024/01/24 21:42:32;;;;;;;;;75.67;59.33;;;;;;;;4973450;28;8900;-76
2024/01/24 21:44:57;;;;;;;;;74.00;59.67;;;;;;;;4969946;28;8927;-76
2024/01/24 21:47:23;;;;;;;;;79.00;63.33;;;;;;;;4956399;28;9581;-76
2024/01/24 21:49:48;;;;;;;;;71.33;58.00;;;;;;;;4956577;28;8920;-75
2024/01/24 21:52:15;;;;;;;;;71.33;57.00;;;;;;;;4974297;28;8816;-75
2024/01/24 21:54:40;;;;;;;;;70.67;56.67;;;;;;;;4974009;28;8844;-77
2024/01/24 21:57:05;;;;;;;;;72.33;57.00;;;;;;;;4974001;28;8910;-74
2024/01/24 21:59:31;;;;;;;;;57.67;49.00;;;;;;;;4973891;28;8819;-75
2024/01/24 22:01:57;;;;;;;;;72.00;57.33;;;;;;;;4974131;28;8887;-75
2024/01/24 22:04:22;;;;;;;;;73.67;58.00;;;;;;;;4973894;28;8800;-75
2024/01/24 22:06:48;;;;;;;;;75.33;58.00;;;;;;;;4974073;28;8919;-75
2024/01/24 22:09:14;;;;;;;;;71.00;55.33;;;;;;;;4973851;28;8899;-76
2024/01/24 22:11:39;;;;;;;;;68.67;55.00;;;;;;;;4973876;28;8793;-75
2024/01/24 22:14:05;;;;;;;;;69.00;56.00;;;;;;;;4956381;28;9527;-74
2024/01/24 22:16:30;;;;;;;;;65.00;54.33;;;;;;;;4973660;28;8855;-74
2024/01/24 22:18:55;;;;;;;;;48.33;35.67;;;;;;;;4973434;28;8843;-74
2024/01/24 22:21:21;;;;;;;;;70.33;56.33;;;;;;;;4973662;28;9538;-74
2024/01/24 22:23:47;;;;;;;;;70.33;55.00;;;;;;;;4973573;28;8796;-74
2024/01/24 22:26:12;;;;;;;;;66.00;53.67;;;;;;;;4973446;28;8808;-74
2024/01/24 22:28:37;;;;;;;;;69.00;52.67;;;;;;;;4973437;28;8808;-74
2024/01/24 22:31:03;;;;;;;;;70.67;57.00;;;;;;;;4973502;28;8826;-75
2024/01/24 22:33:28;;;;;;;;;67.00;55.00;;;;;;;;4956017;28;8839;-74
2024/01/24 22:35:53;;;;;;;;;73.00;57.00;;;;;;;;4973224;28;8942;-74
2024/01/24 22:38:19;;;;;;;;;67.33;55.00;;;;;;;;4973332;28;8793;-74
2024/01/24 22:40:44;;;;;;;;;71.33;55.33;;;;;;;;4973247;28;8793;-75
2024/01/24 22:43:10;;;;;;;;;71.00;55.67;;;;;;;;4972963;28;8890;-75
2024/01/24 22:45:35;;;;;;;;;65.00;54.67;;;;;;;;4973209;28;8784;-75